Time;durP1;ratioP1;P1;durP2;ratioP2;P2;SDS_P1;SDS_P2;PMS_P1;PMS_P2;Temp;Humidity;BMP_temperature;BMP_pressure;BME280_temperature;BME280_humidity;BME280_pressure;Samples;Min_cycle;Max_cycle;Signal;HPM_P1;HPM_P2
2022/05/28 00:01:34;;;;;;;5.50;5.10;;;9.40;99.90;;;;;;5065111;28;20171;-65
2022/05/28 00:04:04;;;;;;;5.90;5.53;;;9.30;99.90;;;;;;5053860;28;20245;-66
2022/05/28 00:06:32;;;;;;;7.20;6.07;;;9.30;99.90;;;;;;5061513;28;20201;-65
2022/05/28 00:09:02;;;;;;;6.37;5.80;;;9.30;99.90;;;;;;5074139;28;20595;-65
2022/05/28 00:11:35;;;;;;;5.90;5.50;;;9.30;99.90;;;;;;5067242;28;20198;-65
2022/05/28 00:14:01;;;;;;;6.17;5.67;;;9.40;99.90;;;;;;5053602;28;20181;-65
2022/05/28 00:16:27;;;;;;;7.27;5.80;;;9.40;99.90;;;;;;5059615;28;20629;-65
2022/05/28 00:18:53;;;;;;;6.30;5.73;;;9.40;99.90;;;;;;5073836;28;20253;-65
2022/05/28 00:21:20;;;;;;;5.93;5.20;;;9.40;99.90;;;;;;5069238;28;20297;-65
2022/05/28 00:23:46;;;;;;;8.07;5.60;;;9.40;99.90;;;;;;5053321;28;20177;-65
2022/05/28 00:26:13;;;;;;;6.03;5.63;;;9.40;99.90;;;;;;5054943;28;20273;-65
2022/05/28 00:28:39;;;;;;;6.60;6.10;;;9.50;99.90;;;;;;5073512;28;20588;-65
2022/05/28 00:31:04;;;;;;;6.23;5.60;;;9.60;99.90;;;;;;5070712;28;20290;-65
2022/05/28 00:33:30;;;;;;;6.53;6.03;;;9.70;99.90;;;;;;5053210;28;20174;-65
2022/05/28 00:35:59;;;;;;;6.20;5.80;;;9.80;99.90;;;;;;5065691;28;20186;-65
2022/05/28 00:38:26;;;;;;;5.70;5.27;;;9.90;99.90;;;;;;5073357;28;20197;-65
2022/05/28 00:40:54;;;;;;;6.30;5.80;;;9.90;99.90;;;;;;5061564;28;20195;-65
2022/05/28 00:43:20;;;;;;;6.00;5.50;;;9.90;99.90;;;;;;5052425;28;20689;-65
2022/05/28 00:45:49;;;;;;;7.30;5.50;;;10.00;99.90;;;;;;5061971;28;20284;-65
2022/05/28 00:48:21;;;;;;;5.80;5.40;;;10.10;99.90;;;;;;5073469;28;20212;-65
2022/05/28 00:50:47;;;;;;;7.00;5.57;;;10.10;99.90;;;;;;5062477;28;20213;-66
2022/05/28 00:53:13;;;;;;;5.83;5.43;;;10.10;99.90;;;;;;5053147;28;20170;-65
2022/05/28 00:55:39;;;;;;;6.83;5.43;;;10.00;99.90;;;;;;5060098;28;20178;-65
2022/05/28 00:58:08;;;;;;;8.03;6.13;;;10.00;99.90;;;;;;5072999;28;20201;-65
2022/05/28 01:00:34;;;;;;;5.73;5.30;;;10.00;99.90;;;;;;5059583;28;20605;-65
2022/05/28 01:03:17;;;;;;;6.50;5.70;;;10.00;99.90;;;;;;5052809;28;20201;-65
2022/05/28 01:06:08;;;;;;;5.97;5.57;;;10.10;99.90;;;;;;5061084;28;20645;-66
2022/05/28 01:08:56;;;;;;;9.27;5.60;;;10.20;99.90;;;;;;5032989;28;20549;-65
2022/05/28 01:11:47;;;;;;;6.27;5.80;;;10.30;99.90;;;;;;5032454;28;20187;-65
2022/05/28 01:14:45;;;;;;;7.23;5.80;;;10.30;99.90;;;;;;5003529;28;20184;-65
2022/05/28 01:17:21;;;;;;;5.30;5.00;;;10.50;99.90;;;;;;5038255;28;20214;-65
2022/05/28 01:19:53;;;;;;;8.37;5.30;;;10.50;99.90;;;;;;5068526;28;20210;-65
2022/05/28 01:22:50;;;;;;;6.83;5.30;;;10.60;99.90;;;;;;5051288;28;20532;-65
2022/05/28 01:25:43;;;;;;;6.20;5.57;;;10.70;99.90;;;;;;5058787;28;20186;-65
2022/05/28 01:28:13;;;;;;;8.00;6.00;;;10.70;99.90;;;;;;5071139;28;20174;-65
2022/05/28 01:30:41;;;;;;;7.50;5.53;;;10.70;99.90;;;;;;5062594;28;20281;-65
2022/05/28 01:33:09;;;;;;;5.33;4.93;;;10.80;99.90;;;;;;5052222;28;20171;-65
2022/05/28 01:35:37;;;;;;;5.40;5.00;;;10.80;99.90;;;;;;5058433;28;20273;-65
2022/05/28 01:38:05;;;;;;;8.43;5.50;;;10.80;99.90;;;;;;5072192;28;20288;-66
2022/05/28 01:40:32;;;;;;;5.97;5.50;;;10.80;99.90;;;;;;5065044;28;20278;-65
2022/05/28 01:43:05;;;;;;;7.23;5.33;;;10.70;99.90;;;;;;5051964;28;20171;-65
2022/05/28 01:45:33;;;;;;;10.10;5.67;;;10.80;99.90;;;;;;5031973;28;20199;-65
2022/05/28 01:48:02;;;;;;;5.37;5.07;;;10.80;99.90;;;;;;5032936;28;20206;-65
2022/05/28 01:50:32;;;;;;;7.47;5.33;;;10.80;99.90;;;;;;5032100;28;20199;-65
2022/05/28 01:53:01;;;;;;;6.00;5.60;;;10.80;99.90;;;;;;5031888;28;20175;-65
2022/05/28 01:55:28;;;;;;;6.10;5.60;;;10.90;99.90;;;;;;5070013;28;20178;-66
2022/05/28 01:57:53;;;;;;;5.87;5.30;;;10.80;99.90;;;;;;5071776;28;20221;-66
2022/05/28 02:00:19;;;;;;;5.57;5.10;;;10.70;99.90;;;;;;5053673;28;20735;-66
2022/05/28 02:02:45;;;;;;;6.63;5.80;;;10.60;99.90;;;;;;5051362;28;20271;-65
2022/05/28 02:05:10;;;;;;;6.47;5.90;;;10.50;99.90;;;;;;5052221;28;20544;-65
2022/05/28 02:07:36;;;;;;;5.57;5.17;;;10.50;99.90;;;;;;5051682;28;20258;-65
2022/05/28 02:10:07;;;;;;;5.33;5.00;;;10.50;99.90;;;;;;5066276;28;20691;-69
2022/05/28 02:12:56;;;;;;;5.90;5.50;;;10.50;99.90;;;;;;5052984;28;20603;-69
2022/05/28 02:15:40;;;;;;;6.77;5.60;;;10.50;99.90;;;;;;5068561;28;20525;-70
2022/05/28 02:18:17;;;;;;;5.63;5.23;;;10.50;99.90;;;;;;5072621;28;20217;-69
2022/05/28 02:20:56;;;;;;;5.70;5.20;;;10.60;99.90;;;;;;5052664;28;20213;-70
2022/05/28 02:23:27;;;;;;;6.37;5.30;;;10.60;99.90;;;;;;5052749;28;20254;-70
2022/05/28 02:26:18;;;;;;;5.90;5.60;;;10.70;99.90;;;;;;5070131;28;20179;-68
2022/05/28 02:28:45;;;;;;;7.07;6.40;;;10.60;99.90;;;;;;5065067;28;20192;-68
2022/05/28 02:31:25;;;;;;;6.57;5.50;;;10.70;99.90;;;;;;5052488;28;20190;-72
2022/05/28 02:33:51;;;;;;;6.30;5.70;;;10.70;99.90;;;;;;5059533;28;20645;-69
2022/05/28 02:36:18;;;;;;;8.43;5.80;;;10.70;99.90;;;;;;5071285;28;20174;-68
2022/05/28 02:38:43;;;;;;;6.10;5.60;;;10.80;99.90;;;;;;5065217;28;20705;-70
2022/05/28 02:41:09;;;;;;;6.20;5.60;;;10.80;99.90;;;;;;5051094;28;20278;-71
2022/05/28 02:43:36;;;;;;;11.77;5.53;;;10.80;99.90;;;;;;5054198;28;20171;-68
2022/05/28 02:46:03;;;;;;;5.63;5.17;;;10.90;99.90;;;;;;5072546;28;20336;-69
2022/05/28 02:48:28;;;;;;;6.03;5.30;;;10.90;99.90;;;;;;5070200;28;20166;-68
2022/05/28 02:51:02;;;;;;;6.17;5.67;;;10.80;99.90;;;;;;5050692;28;20819;-68
2022/05/28 02:53:27;;;;;;;6.73;6.10;;;10.80;99.90;;;;;;5053660;28;20193;-70
2022/05/28 02:55:53;;;;;;;6.20;5.60;;;10.80;99.90;;;;;;5052466;28;20171;-70
2022/05/28 02:58:18;;;;;;;6.80;6.33;;;10.70;99.90;;;;;;5054290;28;20293;-68
2022/05/28 03:00:44;;;;;;;6.60;6.00;;;10.70;99.90;;;;;;5066501;28;20194;-70
2022/05/28 03:03:10;;;;;;;6.13;5.70;;;10.70;99.90;;;;;;5050614;28;20889;-69
2022/05/28 03:05:35;;;;;;;7.03;6.13;;;10.60;99.90;;;;;;5052200;28;20186;-71
2022/05/28 03:08:01;;;;;;;6.30;5.80;;;10.70;99.90;;;;;;5051780;28;20262;-70
2022/05/28 03:10:26;;;;;;;6.00;5.53;;;10.70;99.90;;;;;;5070756;28;20259;-70
2022/05/28 03:12:52;;;;;;;7.80;6.73;;;10.70;99.90;;;;;;5072447;28;20608;-68
2022/05/28 03:15:18;;;;;;;7.50;6.30;;;10.70;99.90;;;;;;5057911;28;20269;-69
2022/05/28 03:17:43;;;;;;;7.23;5.47;;;10.60;99.90;;;;;;5054976;28;20213;-69
2022/05/28 03:20:10;;;;;;;6.50;5.90;;;10.60;99.90;;;;;;5071048;28;20236;-68
2022/05/28 03:22:36;;;;;;;6.33;5.87;;;10.60;99.90;;;;;;5076453;28;20197;-69
2022/05/28 03:25:01;;;;;;;6.77;6.00;;;10.60;99.90;;;;;;5061222;28;20653;-70
2022/05/28 03:27:27;;;;;;;6.80;5.37;;;10.50;99.90;;;;;;5055853;28;20170;-69
2022/05/28 03:29:52;;;;;;;6.10;5.50;;;10.40;99.90;;;;;;5066750;28;20271;-70
2022/05/28 03:32:18;;;;;;;6.87;5.90;;;10.30;99.90;;;;;;5075913;28;20178;-67
2022/05/28 03:34:44;;;;;;;6.43;5.50;;;10.30;99.90;;;;;;5066388;28;20183;-66
2022/05/28 03:37:09;;;;;;;6.93;6.43;;;10.20;99.90;;;;;;5054328;28;20206;-69
2022/05/28 03:39:35;;;;;;;8.80;5.90;;;10.10;99.90;;;;;;5062455;28;20201;-69
2022/05/28 03:42:00;;;;;;;6.27;5.70;;;10.10;99.90;;;;;;5075790;28;20166;-66
2022/05/28 03:44:26;;;;;;;6.40;5.90;;;10.00;99.90;;;;;;5073944;28;20249;-70
2022/05/28 03:46:52;;;;;;;6.77;6.03;;;10.00;99.90;;;;;;5075217;28;20258;-65
2022/05/28 03:49:25;;;;;;;8.03;6.70;;;9.90;99.90;;;;;;5070465;28;20178;-66
2022/05/28 03:51:50;;;;;;;10.90;5.60;;;9.90;99.90;;;;;;5054330;28;20221;-65
2022/05/28 03:54:16;;;;;;;6.80;6.33;;;9.90;99.90;;;;;;5056563;28;20179;-65
2022/05/28 03:56:43;;;;;;;6.07;5.60;;;9.90;99.90;;;;;;5074010;28;20216;-65
2022/05/28 03:59:09;;;;;;;9.77;6.10;;;9.90;99.90;;;;;;5072833;28;20177;-66
2022/05/28 04:01:36;;;;;;;8.20;6.90;;;9.90;99.90;;;;;;5054188;28;20633;-65
2022/05/28 04:04:02;;;;;;;7.37;6.37;;;9.90;99.90;;;;;;5053707;28;20178;-65
2022/05/28 04:06:28;;;;;;;6.47;6.10;;;9.90;99.90;;;;;;5073708;28;20629;-65
2022/05/28 04:08:53;;;;;;;6.83;6.37;;;9.90;99.90;;;;;;5073863;28;20178;-66
2022/05/28 04:11:20;;;;;;;9.33;7.00;;;9.90;99.90;;;;;;5056074;28;20385;-64
2022/05/28 04:13:46;;;;;;;6.93;6.37;;;9.90;99.90;;;;;;5053625;28;20182;-66
2022/05/28 04:16:13;;;;;;;6.73;6.33;;;9.90;99.90;;;;;;5069600;28;20174;-64
2022/05/28 04:18:40;;;;;;;9.17;6.33;;;10.00;99.90;;;;;;5073700;28;20223;-66
2022/05/28 04:21:06;;;;;;;7.53;6.47;;;10.00;99.90;;;;;;5058169;28;20286;-65
2022/05/28 04:23:32;;;;;;;11.00;6.20;;;10.00;99.90;;;;;;5053474;28;20197;-65
2022/05/28 04:25:57;;;;;;;7.20;6.50;;;10.10;99.90;;;;;;5066026;28;20174;-66
2022/05/28 04:28:23;;;;;;;8.53;7.10;;;10.10;99.90;;;;;;5072169;28;20201;-65
2022/05/28 04:30:48;;;;;;;6.47;6.00;;;10.20;99.90;;;;;;5053514;28;20734;-65
2022/05/28 04:33:14;;;;;;;7.37;6.00;;;10.20;99.90;;;;;;5062960;28;20288;-65
2022/05/28 04:35:39;;;;;;;9.87;6.40;;;10.30;99.90;;;;;;5073180;28;20259;-65
2022/05/28 04:38:05;;;;;;;12.47;6.60;;;10.30;99.90;;;;;;5063953;28;20712;-65
2022/05/28 04:40:31;;;;;;;7.87;6.57;;;10.40;99.90;;;;;;5053329;28;20193;-65
2022/05/28 04:42:56;;;;;;;6.40;5.90;;;10.60;99.90;;;;;;5058999;28;20220;-64
2022/05/28 04:45:22;;;;;;;9.63;6.20;;;10.70;99.90;;;;;;5072983;28;20205;-66
2022/05/28 04:47:48;;;;;;;6.73;6.23;;;10.80;99.90;;;;;;5068700;28;20218;-66
2022/05/28 04:50:14;;;;;;;7.23;6.53;;;11.10;99.90;;;;;;5053147;28;20198;-65
2022/05/28 04:52:41;;;;;;;6.37;5.47;;;11.30;99.90;;;;;;5055332;28;20344;-65
2022/05/28 04:55:11;;;;;;;5.93;5.40;;;11.70;99.90;;;;;;5072682;28;20174;-66
2022/05/28 04:57:37;;;;;;;6.07;5.47;;;12.00;99.90;;;;;;5068105;28;20289;-65
2022/05/28 05:00:07;;;;;;;5.97;5.33;;;12.30;99.90;;;;;;5071659;28;20197;-65
2022/05/28 05:02:32;;;;;;;6.03;5.50;;;12.50;99.90;;;;;;5068020;28;20170;-65
2022/05/28 05:04:58;;;;;;;5.97;5.47;;;12.70;99.90;;;;;;5051183;28;20258;-66
2022/05/28 05:07:24;;;;;;;5.93;5.27;;;12.90;99.90;;;;;;5053885;28;20186;-66
2022/05/28 05:09:50;;;;;;;6.67;5.93;;;13.00;99.90;;;;;;5063695;28;20195;-66
2022/05/28 05:12:16;;;;;;;7.00;5.23;;;13.10;99.90;;;;;;5052764;28;20179;-66
2022/05/28 05:14:42;;;;;;;9.87;5.00;;;13.20;99.90;;;;;;5052425;28;20520;-66
2022/05/28 05:17:07;;;;;;;6.90;6.27;;;13.20;99.90;;;;;;5052378;28;20289;-65
2022/05/28 05:19:33;;;;;;;6.43;4.90;;;13.30;99.90;;;;;;5071307;28;20208;-65
2022/05/28 05:21:59;;;;;;;7.77;5.87;;;13.30;99.90;;;;;;5072510;28;20166;-66
2022/05/28 05:24:24;;;;;;;5.10;4.70;;;13.40;99.90;;;;;;5054824;28;20179;-66
2022/05/28 05:26:50;;;;;;;7.70;5.60;;;13.50;99.90;;;;;;5052445;28;20513;-67
2022/05/28 05:29:16;;;;;;;7.43;5.93;;;13.60;99.90;;;;;;5067608;28;20190;-66
2022/05/28 05:31:42;;;;;;;5.93;5.43;;;13.70;99.90;;;;;;5072520;28;20592;-65
2022/05/28 05:34:08;;;;;;;8.33;5.70;;;13.70;99.90;;;;;;5070554;28;20237;-65
2022/05/28 05:36:35;;;;;;;6.80;6.00;;;13.70;99.90;;;;;;5071763;28;20194;-66
2022/05/28 05:39:00;;;;;;;6.17;5.67;;;13.70;99.90;;;;;;5058565;28;20190;-66
2022/05/28 05:41:26;;;;;;;5.90;5.30;;;13.70;99.90;;;;;;5052070;28;20186;-65
2022/05/28 05:43:52;;;;;;;5.73;4.87;;;13.80;99.90;;;;;;5061920;28;20185;-65
2022/05/28 05:46:18;;;;;;;7.67;5.07;;;14.10;99.90;;;;;;5070850;28;20170;-66
2022/05/28 05:48:44;;;;;;;5.53;5.00;;;14.30;99.90;;;;;;5063049;28;20194;-65
2022/05/28 05:51:14;;;;;;;10.83;5.80;;;14.60;99.90;;;;;;5051974;28;20210;-66
2022/05/28 05:53:39;;;;;;;5.83;5.33;;;14.80;99.90;;;;;;5059069;28;20173;-66
2022/05/28 05:56:06;;;;;;;5.60;5.20;;;14.90;99.90;;;;;;5071930;28;20518;-66
2022/05/28 05:58:34;;;;;;;4.93;4.63;;;14.90;99.90;;;;;;5066039;28;20204;-66
2022/05/28 06:01:02;;;;;;;5.60;5.03;;;15.10;99.90;;;;;;5051765;28;20248;-66
2022/05/28 06:03:28;;;;;;;7.20;5.47;;;15.20;99.90;;;;;;5056111;28;20562;-66
2022/05/28 06:06:02;;;;;;;6.97;4.90;;;15.20;99.90;;;;;;5051866;28;20210;-66
2022/05/28 06:08:28;;;;;;;5.43;5.13;;;15.40;99.90;;;;;;5055814;28;20186;-67
2022/05/28 06:10:54;;;;;;;5.97;5.33;;;15.50;99.90;;;;;;5070253;28;20198;-66
2022/05/28 06:13:20;;;;;;;4.60;4.30;;;15.50;99.90;;;;;;5068801;28;20178;-67
2022/05/28 06:15:46;;;;;;;5.10;4.70;;;15.40;99.90;;;;;;5069974;28;20223;-67
2022/05/28 06:18:16;;;;;;;5.20;4.73;;;15.70;99.90;;;;;;5070240;28;20738;-66
2022/05/28 06:20:42;;;;;;;5.33;4.80;;;15.80;99.90;;;;;;5050488;28;20214;-66
2022/05/28 06:23:08;;;;;;;5.10;4.70;;;15.80;99.90;;;;;;5051227;28;20175;-65
2022/05/28 06:25:36;;;;;;;5.47;4.87;;;16.10;99.90;;;;;;5052185;28;20232;-66
2022/05/28 06:28:01;;;;;;;5.50;5.10;;;15.90;99.90;;;;;;5051413;28;20179;-66
2022/05/28 06:30:27;;;;;;;5.07;4.67;;;15.80;99.90;;;;;;5069703;28;20664;-65
2022/05/28 06:32:53;;;;;;;6.13;5.73;;;15.90;99.90;;;;;;5060095;28;20649;-66
2022/05/28 06:35:18;;;;;;;8.23;5.70;;;15.70;99.90;;;;;;5050901;28;20174;-66
2022/05/28 06:37:44;;;;;;;7.37;6.07;;;15.80;99.90;;;;;;5060000;28;20205;-66
2022/05/28 06:40:10;;;;;;;6.37;5.87;;;15.80;99.90;;;;;;5071451;28;20217;-65
2022/05/28 06:42:36;;;;;;;5.70;5.20;;;16.20;99.90;;;;;;5063616;28;20171;-65
2022/05/28 06:45:02;;;;;;;5.73;5.13;;;16.50;99.90;;;;;;5050802;28;20262;-66
2022/05/28 06:47:28;;;;;;;4.40;4.20;;;16.80;99.90;;;;;;5054692;28;20551;-66
2022/05/28 06:52:38;;;;;;;3.93;3.63;;;17.30;99.90;;;;;;5068682;28;20236;-66
2022/05/28 06:55:05;;;;;;;3.90;3.60;;;17.50;99.90;;;;;;5054969;28;20399;-65
2022/05/28 06:57:30;;;;;;;4.00;3.80;;;17.40;99.90;;;;;;5058568;28;20775;-65
2022/05/28 06:59:58;;;;;;;5.73;4.13;;;16.90;99.90;;;;;;5074768;28;20185;-65
2022/05/28 07:02:24;;;;;;;5.47;5.07;;;16.70;99.90;;;;;;5072825;28;20541;-65
2022/05/28 07:04:49;;;;;;;5.43;4.93;;;16.50;99.90;;;;;;5073807;28;20166;-66
2022/05/28 07:07:15;;;;;;;5.27;4.73;;;16.40;99.90;;;;;;5072734;28;20189;-66
2022/05/28 07:09:41;;;;;;;4.17;3.50;;;16.70;99.90;;;;;;5054880;28;20218;-66
2022/05/28 07:12:07;;;;;;;4.30;4.00;;;17.40;99.90;;;;;;5054906;28;20249;-66
2022/05/28 07:14:33;;;;;;;8.07;4.03;;;17.60;99.90;;;;;;5034544;28;20188;-66
2022/05/28 07:16:58;;;;;;;4.20;3.90;;;17.20;99.90;;;;;;5032735;28;20203;-65
2022/05/28 07:19:24;;;;;;;4.10;3.70;;;17.00;99.90;;;;;;5064916;28;20198;-66
2022/05/28 07:21:50;;;;;;;3.90;3.60;;;17.00;99.90;;;;;;5074714;28;20174;-66
2022/05/28 07:24:15;;;;;;;4.67;3.80;;;17.50;99.90;;;;;;5074488;28;20596;-64
2022/05/28 07:26:41;;;;;;;3.73;3.40;;;18.00;99.90;;;;;;5058773;28;20670;-63
2022/05/28 07:29:08;;;;;;;4.23;3.87;;;18.70;99.90;;;;;;5054304;28;20175;-63
2022/05/28 07:31:35;;;;;;;3.97;3.60;;;19.10;99.90;;;;;;5067917;28;20542;-63
2022/05/28 07:34:01;;;;;;;4.00;3.37;;;19.70;99.90;;;;;;5072735;28;20182;-64
2022/05/28 07:36:26;;;;;;;4.23;3.33;;;19.90;99.90;;;;;;5061636;28;20175;-64
2022/05/28 07:38:55;;;;;;;3.60;3.40;;;19.80;99.90;;;;;;5054334;28;20258;-63
2022/05/28 07:41:24;;;;;;;3.50;3.30;;;20.00;99.90;;;;;;5064924;28;20190;-64
2022/05/28 07:43:52;;;;;;;3.97;3.10;;;20.00;99.90;;;;;;5073976;28;20166;-64
2022/05/28 07:46:20;;;;;;;5.13;3.70;;;19.90;99.90;;;;;;5072733;28;20182;-64
2022/05/28 07:48:47;;;;;;;3.60;3.40;;;19.80;99.90;;;;;;5069399;28;20577;-64
2022/05/28 07:51:13;;;;;;;3.93;3.47;;;19.40;99.90;;;;;;5072576;28;20194;-64
2022/05/28 07:53:39;;;;;;;3.83;3.60;;;19.40;99.90;;;;;;5066677;28;20186;-64
2022/05/28 07:56:06;;;;;;;3.60;3.30;;;19.30;99.90;;;;;;5074035;28;20180;-64
2022/05/28 07:58:32;;;;;;;3.63;3.33;;;19.20;99.90;;;;;;5073868;28;20202;-64
2022/05/28 08:00:57;;;;;;;5.20;3.40;;;19.50;99.90;;;;;;5072322;28;20201;-64
2022/05/28 08:03:24;;;;;;;3.10;2.90;;;19.80;99.90;;;;;;5073822;28;20513;-64
2022/05/28 08:05:52;;;;;;;3.67;3.20;;;20.10;99.90;;;;;;5073237;28;20166;-65
2022/05/28 08:08:19;;;;;;;3.40;3.10;;;20.70;99.90;;;;;;5074227;28;20231;-64
2022/05/28 08:10:45;;;;;;;2.83;2.72;;;21.00;99.90;;;;;;5073862;28;20544;-65
2022/05/28 08:13:14;;;;;;;3.50;2.83;;;20.60;99.90;;;;;;5073948;28;20173;-64
2022/05/28 08:15:42;;;;;;;3.17;2.97;;;20.50;99.90;;;;;;5073536;28;20162;-65
2022/05/28 08:18:10;;;;;;;3.20;2.90;;;20.40;99.90;;;;;;5073805;28;20201;-64
2022/05/28 08:23:20;;;;;;;3.23;3.03;;;19.80;99.90;;;;;;5073579;28;20195;-64
2022/05/28 08:25:47;;;;;;;3.70;3.40;;;19.20;99.90;;;;;;5073433;28;20178;-64
2022/05/28 08:28:15;;;;;;;3.27;3.07;;;19.50;99.90;;;;;;5073694;28;20239;-64
2022/05/28 08:30:41;;;;;;;3.47;3.27;;;20.00;99.90;;;;;;5073486;28;20699;-64
2022/05/28 08:33:08;;;;;;;3.83;3.63;;;19.60;99.90;;;;;;5073355;28;20182;-63
2022/05/28 08:35:36;;;;;;;3.73;3.47;;;19.30;99.90;;;;;;5073142;28;20550;-65
2022/05/28 08:38:10;;;;;;;3.80;3.30;;;18.90;99.90;;;;;;5073378;28;20661;-65
2022/05/28 08:41:03;;;;;;;3.40;3.10;;;19.40;99.90;;;;;;5073584;28;20192;-64
2022/05/28 08:43:31;;;;;;;3.38;3.08;;;20.10;99.90;;;;;;5072047;28;20718;-64
2022/05/28 08:45:57;;;;;;;3.40;3.13;;;20.90;99.90;;;;;;5073327;28;20174;-65
2022/05/28 08:48:48;;;;;;;5.80;3.90;;;20.30;99.90;;;;;;5073398;28;20642;-65
2022/05/28 08:51:35;;;;;;;4.23;3.90;;;20.00;99.90;;;;;;5064121;28;20195;-65
2022/05/28 08:54:29;;;;;;;5.30;3.50;;;19.60;99.90;;;;;;5052702;28;20266;-64
2022/05/28 08:57:01;;;;;;;4.17;3.77;;;19.40;99.90;;;;;;5050167;28;20250;-65
2022/05/28 08:59:54;;;;;;;3.30;3.10;;;19.40;99.90;;;;;;5052931;28;20191;-65
2022/05/28 09:02:39;;;;;;;3.30;3.10;;;19.80;99.90;;;;;;5044858;28;20190;-65
2022/05/28 09:05:28;;;;;;;3.58;3.20;;;20.40;99.90;;;;;;5051385;28;20175;-65
2022/05/28 09:08:01;;;;;;;3.20;3.00;;;20.70;99.90;;;;;;5063060;28;20201;-65
2022/05/28 09:10:46;;;;;;;3.83;3.10;;;20.40;99.90;;;;;;5072235;28;20566;-65
2022/05/28 09:13:39;;;;;;;3.10;2.90;;;20.20;99.90;;;;;;5063024;28;20182;-64
2022/05/28 09:16:07;;;;;;;2.97;2.83;;;20.70;99.90;;;;;;5032850;28;20666;-64
2022/05/28 09:18:40;;;;;;;3.20;3.00;;;21.10;99.90;;;;;;5031328;28;20298;-64
2022/05/28 09:21:09;;;;;;;3.08;2.70;;;21.00;99.90;;;;;;5032639;28;20752;-65
2022/05/28 09:24:04;;;;;;;3.15;2.92;;;21.30;99.90;;;;;;5061190;28;20182;-64
2022/05/28 09:26:41;;;;;;;29.75;13.00;;;21.50;99.90;;;;;;5072510;28;20573;-64
2022/05/28 09:29:28;;;;;;;103.25;52.38;;;21.10;99.90;;;;;;5070660;28;20185;-65
2022/05/28 09:32:14;;;;;;;32.35;15.63;;;20.80;99.90;;;;;;5070588;28;20205;-65
2022/05/28 09:34:47;;;;;;;5.72;4.07;;;21.20;99.90;;;;;;5071951;28;20196;-65
2022/05/28 09:37:26;;;;;;;2.70;2.60;;;21.80;99.90;;;;;;5063092;28;20210;-65
2022/05/28 09:40:09;;;;;;;2.88;2.72;;;22.10;99.90;;;;;;5070565;28;20189;-65
2022/05/28 09:42:49;;;;;;;3.08;2.88;;;21.70;99.90;;;;;;5070375;28;20238;-65
2022/05/28 09:45:31;;;;;;;3.13;2.92;;;21.50;99.90;;;;;;5071589;28;20314;-65
2022/05/28 09:47:57;;;;;;;2.95;2.63;;;21.20;99.90;;;;;;5062923;28;20175;-64
2022/05/28 09:50:29;;;;;;;3.47;2.90;;;21.30;99.90;;;;;;5051826;28;20195;-65
2022/05/28 09:56:36;;;;;;;3.00;2.80;;;22.00;99.90;;;;;;5061422;28;20194;-65
2022/05/28 09:59:18;;;;;;;3.33;3.20;;;22.40;99.90;;;;;;5051821;28;20277;-65
2022/05/28 10:02:07;;;;;;;3.38;3.10;;;22.00;99.90;;;;;;5057366;28;20174;-63
2022/05/28 10:04:45;;;;;;;3.30;3.10;;;20.60;99.90;;;;;;5071538;28;20166;-65
2022/05/28 10:07:11;;;;;;;2.90;2.80;;;20.00;99.90;;;;;;5061965;28;20178;-64
2022/05/28 10:09:48;;;;;;;3.38;3.08;;;20.50;99.90;;;;;;5051450;28;20197;-64
2022/05/28 10:12:33;;;;;;;3.03;2.83;;;21.10;99.90;;;;;;5060718;28;20201;-64
2022/05/28 10:15:05;;;;;;;3.13;3.00;;;21.30;99.90;;;;;;5071196;28;20178;-64
2022/05/28 10:17:32;;;;;;;3.20;3.00;;;21.10;99.90;;;;;;5060164;28;20210;-64
2022/05/28 10:19:59;;;;;;;3.40;3.10;;;21.40;99.90;;;;;;5051774;28;20202;-65
2022/05/28 10:22:27;;;;;;;6.35;3.47;;;21.20;99.90;;;;;;5052343;28;20190;-64
2022/05/28 10:25:00;;;;;;;3.37;3.07;;;20.70;99.90;;;;;;5050993;28;20171;-65
2022/05/28 10:27:53;;;;;;;3.40;3.20;;;20.20;99.90;;;;;;5060422;28;20182;-64
2022/05/28 10:30:43;;;;;;;3.40;3.20;;;19.70;99.90;;;;;;5066629;28;20225;-63
2022/05/28 10:33:13;;;;;;;3.53;3.17;;;19.80;99.90;;;;;;5052856;28;20256;-64
2022/05/28 10:35:39;;;;;;;2.83;2.73;;;19.80;99.90;;;;;;5069194;28;20186;-65
2022/05/28 10:38:15;;;;;;;3.73;3.43;;;20.30;99.90;;;;;;5071292;28;20228;-64
2022/05/28 10:40:53;;;;;;;3.00;2.80;;;20.80;99.90;;;;;;5059568;28;20595;-65
2022/05/28 10:43:33;;;;;;;3.53;3.00;;;21.20;99.90;;;;;;5055712;28;20185;-65
2022/05/28 10:46:11;;;;;;;2.85;2.60;;;21.90;99.90;;;;;;5071005;28;20482;-65
2022/05/28 10:49:21;;;;;;;3.95;2.80;;;22.60;99.90;;;;;;5064025;28;20217;-64
2022/05/28 10:51:52;;;;;;;3.60;3.30;;;22.20;99.80;;;;;;5016772;28;20745;-64
2022/05/28 10:54:39;;;;;;;3.37;3.00;;;20.80;98.40;;;;;;5062259;28;20189;-65
2022/05/28 10:57:24;;;;;;;3.70;3.40;;;20.40;99.90;;;;;;5054878;28;20230;-65
2022/05/28 10:59:52;;;;;;;3.00;2.80;;;20.40;98.70;;;;;;5066284;28;20198;-64
2022/05/28 11:02:49;;;;;;;3.10;2.97;;;21.30;99.90;;;;;;5071031;28;20207;-65
2022/05/28 11:05:32;;;;;;;4.33;3.30;;;21.30;97.90;;;;;;5068188;28;20220;-64
2022/05/28 11:08:18;;;;;;;3.15;2.95;;;21.20;98.20;;;;;;5070694;28;20582;-64
2022/05/28 11:10:59;;;;;;;3.33;3.03;;;21.30;97.60;;;;;;5030926;28;20191;-64
2022/05/28 11:13:31;;;;;;;3.10;2.90;;;21.60;98.30;;;;;;5034115;28;20184;-65
2022/05/28 11:16:29;;;;;;;3.30;3.00;;;21.20;98.70;;;;;;5070969;28;20178;-64
2022/05/28 11:19:11;;;;;;;3.40;3.20;;;21.30;97.40;;;;;;5065164;28;20187;-64
2022/05/28 11:21:45;;;;;;;3.47;3.28;;;21.80;97.90;;;;;;5051055;28;20171;-64
2022/05/28 11:24:39;;;;;;;3.15;3.00;;;22.40;99.90;;;;;;5057820;28;20319;-64
2022/05/28 11:27:23;;;;;;;4.38;2.95;;;22.30;99.10;;;;;;5031309;28;20647;-64
2022/05/28 11:30:02;;;;;;;3.00;2.80;;;22.10;98.60;;;;;;5055049;28;20255;-64
2022/05/28 11:32:40;;;;;;;2.85;2.67;;;22.60;97.40;;;;;;5070983;28;20533;-64
2022/05/28 11:35:24;;;;;;;3.17;2.97;;;22.80;98.00;;;;;;5058928;28;20626;-64
2022/05/28 11:38:34;;;;;;;3.53;2.83;;;22.80;93.30;;;;;;5054389;28;20203;-64
2022/05/28 11:41:04;;;;;;;3.05;2.80;;;23.10;96.90;;;;;;5005808;28;20333;-64
2022/05/28 11:43:43;;;;;;;3.25;2.70;;;23.10;91.40;;;;;;5034439;28;20179;-64
2022/05/28 11:46:26;;;;;;;2.80;2.60;;;22.50;91.30;;;;;;5034457;28;20572;-64
2022/05/28 11:52:02;;;;;;;3.70;3.20;;;20.90;92.80;;;;;;5074079;28;20224;-65
2022/05/28 11:54:34;;;;;;;3.30;3.10;;;20.20;93.00;;;;;;5067581;28;20174;-64
2022/05/28 11:57:04;;;;;;;3.70;3.50;;;19.60;93.70;;;;;;5052717;28;20209;-64
2022/05/28 11:59:31;;;;;;;3.77;3.40;;;19.50;97.40;;;;;;5050842;28;20193;-64
2022/05/28 12:02:10;;;;;;;5.43;3.50;;;19.60;98.60;;;;;;5052018;28;20199;-64
2022/05/28 12:04:41;;;;;;;3.17;3.07;;;19.70;99.40;;;;;;5053644;28;20588;-64
2022/05/28 12:07:09;;;;;;;3.03;2.83;;;20.30;97.40;;;;;;5054068;28;20568;-64
2022/05/28 12:09:42;;;;;;;3.20;3.00;;;20.00;93.50;;;;;;5053790;28;20194;-65
2022/05/28 12:12:23;;;;;;;4.13;3.30;;;19.90;96.40;;;;;;5053364;28;20702;-65
2022/05/28 12:15:16;;;;;;;3.50;3.30;;;19.20;96.20;;;;;;5053472;28;20171;-64
2022/05/28 12:17:54;;;;;;;3.20;3.00;;;19.20;97.30;;;;;;5048172;28;20236;-64
2022/05/28 12:20:28;;;;;;;4.60;3.03;;;19.90;95.30;;;;;;5053696;28;20210;-65
2022/05/28 12:22:56;;;;;;;2.97;2.70;;;20.70;96.30;;;;;;5053623;28;20203;-64
2022/05/28 12:25:31;;;;;;;3.40;3.20;;;21.60;98.90;;;;;;5053465;28;20206;-65
2022/05/28 12:27:57;;;;;;;3.33;3.13;;;21.70;94.90;;;;;;5053482;28;20171;-64
2022/05/28 12:30:29;;;;;;;4.53;3.03;;;21.50;95.20;;;;;;5053549;28;20241;-64
2022/05/28 12:32:57;;;;;;;5.20;3.00;;;20.90;96.50;;;;;;5051200;28;20213;-65
2022/05/28 12:35:54;;;;;;;3.60;3.40;;;20.60;97.80;;;;;;5053212;28;20543;-65
2022/05/28 12:38:35;;;;;;;3.50;3.30;;;20.20;97.70;;;;;;5053351;28;20199;-64
2022/05/28 12:41:01;;;;;;;3.40;3.13;;;19.80;98.70;;;;;;5053258;28;20199;-65
2022/05/28 12:43:37;;;;;;;3.70;3.50;;;19.70;99.80;;;;;;5053235;28;20167;-65
2022/05/28 12:46:35;;;;;;;3.60;3.30;;;19.60;99.90;;;;;;5051696;28;20175;-65
2022/05/28 12:49:19;;;;;;;3.20;3.00;;;20.00;99.10;;;;;;5053269;28;20182;-64
2022/05/28 12:51:57;;;;;;;3.20;2.90;;;20.70;97.80;;;;;;5052989;28;20175;-65
2022/05/28 12:54:28;;;;;;;3.10;2.90;;;21.30;97.50;;;;;;5053075;28;20166;-65
2022/05/28 12:57:12;;;;;;;3.03;2.90;;;21.70;96.70;;;;;;5052290;28;20216;-64
2022/05/28 12:59:41;;;;;;;3.03;2.85;;;22.10;97.20;;;;;;5032881;28;20658;-65
2022/05/28 13:02:15;;;;;;;3.30;3.03;;;22.60;92.60;;;;;;5043737;28;20257;-65
2022/05/28 13:04:55;;;;;;;2.90;2.70;;;23.00;93.80;;;;;;5050363;28;20179;-64
2022/05/28 13:07:32;;;;;;;3.15;2.90;;;23.50;96.20;;;;;;5063278;28;20189;-64
2022/05/28 13:10:05;;;;;;;5.53;3.28;;;23.40;93.00;;;;;;5071787;28;20200;-65
2022/05/28 13:12:43;;;;;;;3.58;3.28;;;22.20;92.20;;;;;;5061125;28;20265;-63
2022/05/28 13:15:27;;;;;;;3.60;3.40;;;21.40;93.70;;;;;;5052383;28;20181;-65
2022/05/28 13:18:23;;;;;;;3.30;3.10;;;20.80;94.40;;;;;;5062168;28;20198;-65
2022/05/28 13:21:04;;;;;;;3.85;3.50;;;20.40;92.40;;;;;;5032156;28;20210;-64
2022/05/28 13:23:59;;;;;;;2.93;2.83;;;20.50;92.50;;;;;;5032232;28;20167;-63